Time;durP1;ratioP1;P1;durP2;ratioP2;P2;SDS_P1;SDS_P2;PMS_P1;PMS_P2;Temp;Humidity;BMP_temperature;BMP_pressure;BME280_temperature;BME280_humidity;BME280_pressure;Samples;Min_cycle;Max_cycle;Signal;HPM_P1;HPM_P2
2020/12/14 00:00:15;;;;;;;4.87;4.47;;;;;;;;;;2078030;28;20299;-57
2020/12/14 00:01:15;;;;;;;5.18;4.25;;;;;;;;;;2077508;28;20246;-58
2020/12/14 00:02:17;;;;;;;5.17;4.70;;;;;;;;;;2086516;28;20261;-59
2020/12/14 00:03:17;;;;;;;6.83;4.63;;;;;;;;;;2086499;28;20205;-59
2020/12/14 00:04:17;;;;;;;5.15;4.53;;;;;;;;;;2086391;28;20632;-58
2020/12/14 00:05:18;;;;;;;4.70;4.30;;;;;;;;;;2077991;28;20192;-55
2020/12/14 00:06:18;;;;;;;6.30;4.60;;;;;;;;;;2077778;28;20173;-60
2020/12/14 00:07:19;;;;;;;4.60;4.00;;;;;;;;;;2068733;28;20712;-58
2020/12/14 00:08:19;;;;;;;3.40;3.20;;;;;;;;;;2078100;28;20169;-58
2020/12/14 00:09:19;;;;;;;5.63;3.83;;;;;;;;;;2088019;28;20176;-59
2020/12/14 00:10:20;;;;;;;4.53;4.23;;;;;;;;;;2106421;23;20284;-59
2020/12/14 00:11:21;;;;;;;6.93;4.20;;;;;;;;;;2081503;28;20263;-58
2020/12/14 00:12:21;;;;;;;4.40;4.00;;;;;;;;;;2074048;28;20189;-60
2020/12/14 00:13:21;;;;;;;4.20;3.73;;;;;;;;;;2080458;28;20222;-60
2020/12/14 00:14:21;;;;;;;4.70;4.30;;;;;;;;;;2087612;28;20168;-57
2020/12/14 00:15:22;;;;;;;4.50;4.13;;;;;;;;;;2088920;28;20592;-59
2020/12/14 00:16:22;;;;;;;4.53;4.07;;;;;;;;;;2089290;28;20172;-57
2020/12/14 00:17:22;;;;;;;5.80;3.83;;;;;;;;;;2089279;28;20187;-57
2020/12/14 00:18:23;;;;;;;4.20;3.80;;;;;;;;;;2090678;28;20202;-59
2020/12/14 00:19:24;;;;;;;4.37;3.97;;;;;;;;;;2090962;28;20175;-60
2020/12/14 00:20:24;;;;;;;4.40;3.97;;;;;;;;;;2088339;28;20211;-61
2020/12/14 00:21:24;;;;;;;5.00;4.53;;;;;;;;;;2088613;28;20166;-60
2020/12/14 00:22:28;;;;;;;6.53;4.23;;;;;;;;;;2088394;28;20168;-61
2020/12/14 00:23:28;;;;;;;5.73;4.17;;;;;;;;;;2085904;28;20180;-61
2020/12/14 00:24:28;;;;;;;4.43;4.03;;;;;;;;;;2085524;28;20191;-60
2020/12/14 00:25:28;;;;;;;4.77;4.37;;;;;;;;;;2087778;28;20215;-62
2020/12/14 00:26:28;;;;;;;4.47;3.90;;;;;;;;;;2087931;28;20203;-60
2020/12/14 00:27:29;;;;;;;4.63;4.30;;;;;;;;;;2078638;28;20165;-60
2020/12/14 00:28:29;;;;;;;4.77;3.77;;;;;;;;;;2082471;28;20181;-58
2020/12/14 00:29:29;;;;;;;5.00;4.20;;;;;;;;;;2078452;28;20189;-60
2020/12/14 00:30:30;;;;;;;4.53;4.13;;;;;;;;;;2080483;28;20749;-57
2020/12/14 00:31:30;;;;;;;6.97;4.30;;;;;;;;;;2079337;28;20261;-59
2020/12/14 00:32:30;;;;;;;5.47;3.80;;;;;;;;;;2085871;28;20171;-60
2020/12/14 00:33:30;;;;;;;4.60;3.73;;;;;;;;;;2088038;28;20201;-60
2020/12/14 00:34:30;;;;;;;5.47;4.17;;;;;;;;;;2086096;28;20614;-58
2020/12/14 00:35:31;;;;;;;4.87;3.80;;;;;;;;;;2087805;28;20168;-60
2020/12/14 00:36:31;;;;;;;4.00;3.70;;;;;;;;;;2088041;28;20656;-62
2020/12/14 00:37:31;;;;;;;6.83;4.07;;;;;;;;;;2076672;28;20680;-58
2020/12/14 00:38:31;;;;;;;5.67;4.47;;;;;;;;;;2079899;28;20627;-58
2020/12/14 00:39:32;;;;;;;4.43;3.90;;;;;;;;;;2085654;28;20261;-59
2020/12/14 00:40:32;;;;;;;4.07;3.63;;;;;;;;;;2088282;28;20183;-60
2020/12/14 00:41:32;;;;;;;4.67;4.23;;;;;;;;;;2085851;28;20192;-61
2020/12/14 00:42:32;;;;;;;4.60;4.20;;;;;;;;;;2088538;28;20680;-59
2020/12/14 00:43:33;;;;;;;6.07;3.73;;;;;;;;;;2088678;28;20176;-60
2020/12/14 00:44:33;;;;;;;4.40;4.00;;;;;;;;;;2087339;28;20189;-57
2020/12/14 00:45:33;;;;;;;4.80;3.93;;;;;;;;;;2081061;28;20176;-63
2020/12/14 00:46:33;;;;;;;4.17;3.87;;;;;;;;;;2082435;28;20542;-62
2020/12/14 00:47:34;;;;;;;5.57;4.30;;;;;;;;;;2089590;28;20187;-57
2020/12/14 00:48:34;;;;;;;5.77;4.23;;;;;;;;;;2085933;28;20263;-61
2020/12/14 00:49:34;;;;;;;4.43;4.00;;;;;;;;;;2087895;28;20168;-60
2020/12/14 00:50:35;;;;;;;5.95;3.80;;;;;;;;;;2089813;28;20203;-58
2020/12/14 00:51:35;;;;;;;4.63;4.03;;;;;;;;;;2088088;28;20733;-60
2020/12/14 00:52:35;;;;;;;4.77;3.80;;;;;;;;;;2085948;28;20597;-60
2020/12/14 00:53:35;;;;;;;3.85;3.55;;;;;;;;;;2088070;28;20715;-60
2020/12/14 00:54:35;;;;;;;4.40;4.10;;;;;;;;;;2085745;28;20199;-59
2020/12/14 00:55:36;;;;;;;4.07;3.67;;;;;;;;;;2091055;28;20644;-60
2020/12/14 00:56:36;;;;;;;5.30;4.03;;;;;;;;;;2085755;28;20195;-61
2020/12/14 00:57:38;;;;;;;5.67;4.10;;;;;;;;;;2085261;28;20169;-60
2020/12/14 00:58:38;;;;;;;5.03;3.70;;;;;;;;;;2086668;28;20176;-59
2020/12/14 00:59:38;;;;;;;4.53;4.10;;;;;;;;;;2085929;28;20172;-59
2020/12/14 01:00:38;;;;;;;4.63;3.90;;;;;;;;;;2088018;28;20293;-63
2020/12/14 01:01:38;;;;;;;5.03;4.20;;;;;;;;;;2087235;28;20178;-60
2020/12/14 01:02:39;;;;;;;5.17;3.50;;;;;;;;;;2090006;28;20176;-59
2020/12/14 01:03:39;;;;;;;3.90;3.60;;;;;;;;;;2090069;28;20239;-62
2020/12/14 01:04:39;;;;;;;6.25;4.22;;;;;;;;;;2087569;28;20541;-61
2020/12/14 01:05:40;;;;;;;4.27;3.67;;;;;;;;;;2086463;28;20180;-59
2020/12/14 01:06:40;;;;;;;4.30;3.75;;;;;;;;;;2087603;28;20727;-59
2020/12/14 01:07:40;;;;;;;4.82;4.03;;;;;;;;;;2087679;28;20267;-60
2020/12/14 01:08:41;;;;;;;5.60;3.80;;;;;;;;;;2086989;28;20263;-59
2020/12/14 01:09:41;;;;;;;4.60;4.00;;;;;;;;;;2087539;28;20194;-61
2020/12/14 01:10:42;;;;;;;4.63;3.57;;;;;;;;;;2087883;28;20222;-57
2020/12/14 01:11:42;;;;;;;6.87;3.50;;;;;;;;;;2089742;28;20187;-60
2020/12/14 01:12:42;;;;;;;4.57;3.37;;;;;;;;;;2085489;28;20185;-61
2020/12/14 01:13:45;;;;;;;4.85;4.05;;;;;;;;;;2089800;28;20547;-59
2020/12/14 01:14:45;;;;;;;9.23;3.40;;;;;;;;;;2088899;28;20171;-60
2020/12/14 01:15:46;;;;;;;4.80;3.53;;;;;;;;;;2088241;28;20168;-61
2020/12/14 01:16:47;;;;;;;4.40;3.60;;;;;;;;;;2089781;28;20182;-59
2020/12/14 01:17:47;;;;;;;4.33;3.40;;;;;;;;;;2087920;28;20203;-59
2020/12/14 01:18:47;;;;;;;3.50;3.20;;;;;;;;;;2089845;28;20220;-62
2020/12/14 01:19:48;;;;;;;3.60;3.33;;;;;;;;;;2090578;28;20281;-58
2020/12/14 01:20:48;;;;;;;3.97;3.67;;;;;;;;;;2087714;28;20206;-65
2020/12/14 01:21:48;;;;;;;3.77;3.47;;;;;;;;;;2090683;28;20179;-58
2020/12/14 01:22:48;;;;;;;4.43;4.03;;;;;;;;;;2089597;28;20228;-59
2020/12/14 01:23:49;;;;;;;4.90;3.70;;;;;;;;;;2089021;28;20253;-60
2020/12/14 01:24:49;;;;;;;6.03;4.00;;;;;;;;;;2088162;28;20199;-59
2020/12/14 01:25:50;;;;;;;5.17;3.40;;;;;;;;;;2078385;28;20187;-58
2020/12/14 01:26:50;;;;;;;4.57;3.45;;;;;;;;;;2078563;28;20189;-62
2020/12/14 01:27:50;;;;;;;5.03;3.27;;;;;;;;;;2086041;28;20272;-61
2020/12/14 01:28:50;;;;;;;3.97;3.27;;;;;;;;;;2077692;28;20185;-61
2020/12/14 01:29:51;;;;;;;5.03;3.73;;;;;;;;;;2071558;28;20195;-58
2020/12/14 01:30:51;;;;;;;4.20;3.10;;;;;;;;;;2077909;28;20271;-56
2020/12/14 01:31:51;;;;;;;4.30;3.60;;;;;;;;;;2090269;28;20176;-60
2020/12/14 01:32:52;;;;;;;3.50;3.20;;;;;;;;;;2089146;28;20188;-59
2020/12/14 01:33:52;;;;;;;4.93;3.50;;;;;;;;;;2089126;28;20195;-56
2020/12/14 01:34:52;;;;;;;3.70;3.00;;;;;;;;;;2089459;28;20187;-56
2020/12/14 01:35:52;;;;;;;6.63;3.63;;;;;;;;;;2087421;28;20183;-60
2020/12/14 01:36:53;;;;;;;3.60;3.40;;;;;;;;;;2072229;28;20188;-63
2020/12/14 01:37:53;;;;;;;3.75;3.30;;;;;;;;;;2071960;28;20292;-59
2020/12/14 01:38:53;;;;;;;4.33;3.93;;;;;;;;;;2089336;28;20206;-59
2020/12/14 01:39:53;;;;;;;3.77;3.47;;;;;;;;;;2089838;28;20206;-57
2020/12/14 01:40:54;;;;;;;4.37;3.07;;;;;;;;;;2080181;28;20192;-60
2020/12/14 01:41:54;;;;;;;4.10;3.00;;;;;;;;;;2078555;28;20798;-61
2020/12/14 01:42:54;;;;;;;4.00;3.13;;;;;;;;;;2089970;28;20167;-58
2020/12/14 01:43:54;;;;;;;4.43;3.30;;;;;;;;;;2086848;28;20164;-59
2020/12/14 01:44:55;;;;;;;4.10;3.30;;;;;;;;;;2088818;28;20207;-59
2020/12/14 01:45:55;;;;;;;5.77;3.40;;;;;;;;;;2089424;28;20172;-59
2020/12/14 01:46:59;;;;;;;4.13;3.57;;;;;;;;;;2088903;28;20169;-60
2020/12/14 01:48:00;;;;;;;3.97;3.13;;;;;;;;;;2081082;28;20176;-60
2020/12/14 01:49:01;;;;;;;3.30;3.00;;;;;;;;;;2081426;28;20164;-61
2020/12/14 01:50:02;;;;;;;3.80;2.93;;;;;;;;;;2087777;28;20238;-59
2020/12/14 01:51:02;;;;;;;6.37;3.27;;;;;;;;;;2086682;28;20178;-59
2020/12/14 01:52:03;;;;;;;3.60;3.07;;;;;;;;;;2089419;28;20379;-57
2020/12/14 01:53:05;;;;;;;5.53;3.17;;;;;;;;;;2089313;28;20175;-61
2020/12/14 01:54:12;;;;;;;4.20;3.60;;;;;;;;;;2088835;28;20705;-61
2020/12/14 01:55:13;;;;;;;4.35;3.05;;;;;;;;;;2079989;28;20224;-62
2020/12/14 01:56:14;;;;;;;4.03;3.00;;;;;;;;;;2081789;28;20256;-62
2020/12/14 01:57:14;;;;;;;4.53;3.30;;;;;;;;;;2080037;28;20188;-62
2020/12/14 01:58:14;;;;;;;3.22;2.92;;;;;;;;;;2079277;28;20184;-59
2020/12/14 01:59:14;;;;;;;3.65;3.20;;;;;;;;;;2080525;28;20180;-60
2020/12/14 02:00:16;;;;;;;3.90;3.27;;;;;;;;;;2072812;28;20751;-59
2020/12/14 02:01:16;;;;;;;4.83;2.80;;;;;;;;;;2078640;28;20176;-62
2020/12/14 02:02:16;;;;;;;3.30;2.90;;;;;;;;;;2089518;28;20229;-63
2020/12/14 02:03:17;;;;;;;4.03;3.00;;;;;;;;;;2087330;28;20222;-61
2020/12/14 02:04:17;;;;;;;3.63;2.80;;;;;;;;;;2079855;28;20251;-61
2020/12/14 02:05:17;;;;;;;4.47;3.43;;;;;;;;;;2078195;28;20330;-61
2020/12/14 02:06:18;;;;;;;4.03;3.53;;;;;;;;;;2089699;28;20651;-60
2020/12/14 02:07:18;;;;;;;3.90;3.13;;;;;;;;;;2087199;28;20179;-60
2020/12/14 02:08:18;;;;;;;5.80;3.00;;;;;;;;;;2087200;28;20175;-59
2020/12/14 02:09:18;;;;;;;4.28;2.95;;;;;;;;;;2089643;28;20182;-62
2020/12/14 02:10:19;;;;;;;3.27;2.93;;;;;;;;;;2088602;28;20294;-62
2020/12/14 02:11:19;;;;;;;5.00;3.00;;;;;;;;;;2090531;28;20179;-60
2020/12/14 02:12:21;;;;;;;5.47;3.37;;;;;;;;;;2087068;28;20164;-58
2020/12/14 02:13:22;;;;;;;3.80;2.77;;;;;;;;;;2088653;28;20233;-59
2020/12/14 02:14:22;;;;;;;4.07;2.85;;;;;;;;;;2088862;28;20217;-59
2020/12/14 02:15:22;;;;;;;2.93;2.60;;;;;;;;;;2088978;28;20171;-59
2020/12/14 02:16:22;;;;;;;4.97;2.50;;;;;;;;;;2087995;28;20183;-60
2020/12/14 02:17:24;;;;;;;4.25;3.03;;;;;;;;;;2088498;28;20316;-56
2020/12/14 02:18:24;;;;;;;2.90;2.70;;;;;;;;;;2079421;28;20202;-59
2020/12/14 02:19:24;;;;;;;3.27;2.93;;;;;;;;;;2080814;28;20179;-61
2020/12/14 02:20:25;;;;;;;3.37;2.97;;;;;;;;;;2087169;28;20230;-62
2020/12/14 02:21:25;;;;;;;2.97;2.77;;;;;;;;;;2087815;28;20255;-60
2020/12/14 02:22:26;;;;;;;3.40;3.10;;;;;;;;;;2087577;28;20624;-58
2020/12/14 02:23:26;;;;;;;8.38;3.60;;;;;;;;;;2089836;28;20249;-60
2020/12/14 02:24:26;;;;;;;4.85;2.90;;;;;;;;;;2088304;28;20183;-59
2020/12/14 02:25:26;;;;;;;2.87;2.67;;;;;;;;;;2088382;28;20207;-58
2020/12/14 02:26:27;;;;;;;3.47;2.87;;;;;;;;;;2088529;28;20199;-60
2020/12/14 02:27:28;;;;;;;2.73;2.53;;;;;;;;;;2080754;28;20562;-57
2020/12/14 02:28:28;;;;;;;3.40;3.20;;;;;;;;;;2080681;28;20661;-59
2020/12/14 02:29:28;;;;;;;3.37;3.07;;;;;;;;;;2088014;28;20182;-59
2020/12/14 02:30:29;;;;;;;3.87;3.00;;;;;;;;;;2089319;28;20187;-62
2020/12/14 02:31:29;;;;;;;3.70;2.83;;;;;;;;;;2080674;28;20210;-59
2020/12/14 02:32:30;;;;;;;3.20;3.00;;;;;;;;;;2080417;28;20176;-62
2020/12/14 02:33:30;;;;;;;2.90;2.70;;;;;;;;;;2088557;28;20179;-58
2020/12/14 02:34:30;;;;;;;4.33;3.03;;;;;;;;;;2080391;28;20236;-62
2020/12/14 02:35:30;;;;;;;5.67;3.27;;;;;;;;;;2078619;28;20176;-59
2020/12/14 02:36:30;;;;;;;3.40;3.10;;;;;;;;;;2089661;28;20179;-61
2020/12/14 02:37:32;;;;;;;3.10;2.90;;;;;;;;;;2088443;28;20172;-62
2020/12/14 02:38:32;;;;;;;3.90;3.10;;;;;;;;;;2089950;28;20533;-60
2020/12/14 02:39:33;;;;;;;4.77;3.40;;;;;;;;;;2089170;28;20187;-63
2020/12/14 02:40:33;;;;;;;3.30;3.00;;;;;;;;;;2090612;28;20203;-59
2020/12/14 02:41:33;;;;;;;4.10;3.03;;;;;;;;;;2079430;28;20256;-61
2020/12/14 02:42:34;;;;;;;5.27;2.80;;;;;;;;;;2081325;28;20696;-59
2020/12/14 02:43:34;;;;;;;4.00;3.10;;;;;;;;;;2088564;28;20195;-57
2020/12/14 02:44:34;;;;;;;3.47;2.87;;;;;;;;;;2089507;28;20179;-57
2020/12/14 02:45:37;;;;;;;3.05;2.67;;;;;;;;;;2088987;28;20183;-59
2020/12/14 02:46:40;;;;;;;3.27;2.60;;;;;;;;;;2090094;28;20624;-62
2020/12/14 02:47:40;;;;;;;3.20;2.90;;;;;;;;;;2087612;28;20194;-60
2020/12/14 02:48:40;;;;;;;3.57;2.70;;;;;;;;;;2087785;28;20168;-56
2020/12/14 02:49:41;;;;;;;3.90;3.20;;;;;;;;;;2084685;28;20566;-63
2020/12/14 02:50:41;;;;;;;4.20;2.83;;;;;;;;;;2078600;28;20197;-60
2020/12/14 02:51:42;;;;;;;4.20;2.80;;;;;;;;;;2079054;28;20165;-61
2020/12/14 02:52:42;;;;;;;3.67;3.10;;;;;;;;;;2090435;28;20175;-59
2020/12/14 02:53:42;;;;;;;3.40;2.87;;;;;;;;;;2089611;28;20183;-61
2020/12/14 02:54:43;;;;;;;3.00;2.80;;;;;;;;;;2090425;28;20170;-59
2020/12/14 02:55:43;;;;;;;6.85;2.60;;;;;;;;;;2088006;28;20183;-61
2020/12/14 02:56:44;;;;;;;2.97;2.77;;;;;;;;;;2089349;28;20644;-60
2020/12/14 02:57:44;;;;;;;3.73;2.80;;;;;;;;;;2088810;28;20190;-60
2020/12/14 02:58:44;;;;;;;2.80;2.53;;;;;;;;;;2087277;28;20633;-59
2020/12/14 02:59:44;;;;;;;4.10;3.10;;;;;;;;;;2090131;28;20234;-59
2020/12/14 03:00:46;;;;;;;3.40;3.10;;;;;;;;;;2086451;28;20215;-58
2020/12/14 03:01:47;;;;;;;5.00;2.67;;;;;;;;;;2089531;28;20172;-60
2020/12/14 03:02:47;;;;;;;3.00;2.80;;;;;;;;;;2090226;28;20182;-58
2020/12/14 03:03:47;;;;;;;4.82;2.78;;;;;;;;;;2087200;28;20183;-57
2020/12/14 03:04:48;;;;;;;3.23;2.93;;;;;;;;;;2087383;28;20184;-60
2020/12/14 03:05:48;;;;;;;3.73;3.00;;;;;;;;;;2089785;28;20163;-61
2020/12/14 03:06:49;;;;;;;4.03;2.67;;;;;;;;;;2088246;28;20185;-62
2020/12/14 03:07:49;;;;;;;2.90;2.70;;;;;;;;;;2089064;28;20187;-59
2020/12/14 03:08:49;;;;;;;3.03;2.83;;;;;;;;;;2089801;28;20207;-59
2020/12/14 03:09:49;;;;;;;3.10;2.80;;;;;;;;;;2073048;28;20173;-61
2020/12/14 03:10:50;;;;;;;2.50;2.23;;;;;;;;;;2072389;28;20211;-59
2020/12/14 03:11:50;;;;;;;3.90;2.37;;;;;;;;;;2079893;28;20263;-59
2020/12/14 03:12:50;;;;;;;2.50;2.30;;;;;;;;;;2081857;28;20188;-62
2020/12/14 03:13:50;;;;;;;3.17;2.80;;;;;;;;;;2081106;28;20187;-60
2020/12/14 03:14:52;;;;;;;3.23;2.43;;;;;;;;;;2080017;28;20192;-62
2020/12/14 03:15:52;;;;;;;3.93;2.77;;;;;;;;;;2086876;28;20164;-59
2020/12/14 03:16:53;;;;;;;3.10;2.80;;;;;;;;;;2084721;28;20191;-61
2020/12/14 03:17:53;;;;;;;5.63;3.00;;;;;;;;;;2089100;28;20175;-61
2020/12/14 03:18:53;;;;;;;2.58;2.38;;;;;;;;;;2088144;28;20176;-60
2020/12/14 03:19:53;;;;;;;4.53;2.70;;;;;;;;;;2085607;28;20218;-58
2020/12/14 03:20:54;;;;;;;4.10;2.70;;;;;;;;;;2087577;28;20199;-60
2020/12/14 03:21:54;;;;;;;2.63;2.42;;;;;;;;;;2085621;28;20211;-61
2020/12/14 03:22:54;;;;;;;4.77;2.53;;;;;;;;;;2089563;28;20641;-60
2020/12/14 03:23:54;;;;;;;3.22;2.20;;;;;;;;;;2085707;28;20255;-59
2020/12/14 03:24:55;;;;;;;4.38;2.47;;;;;;;;;;2084893;28;20707;-60
2020/12/14 03:25:55;;;;;;;2.43;2.30;;;;;;;;;;2075948;28;20180;-57
2020/12/14 03:26:55;;;;;;;3.00;2.70;;;;;;;;;;2078810;28;20170;-57
2020/12/14 03:27:55;;;;;;;4.63;2.40;;;;;;;;;;2086590;28;20224;-62
2020/12/14 03:28:56;;;;;;;2.80;2.60;;;;;;;;;;2084872;28;20196;-62
2020/12/14 03:29:56;;;;;;;2.22;2.08;;;;;;;;;;2087849;28;20180;-60
2020/12/14 03:30:56;;;;;;;4.30;2.27;;;;;;;;;;2088023;28;20278;-60
2020/12/14 03:31:56;;;;;;;3.13;2.60;;;;;;;;;;2086182;28;20187;-60
2020/12/14 03:32:57;;;;;;;3.50;2.70;;;;;;;;;;2089105;28;20210;-62
2020/12/14 03:33:57;;;;;;;5.73;2.40;;;;;;;;;;2089220;28;20176;-59
2020/12/14 03:34:57;;;;;;;4.33;2.77;;;;;;;;;;2087447;28;20195;-57
2020/12/14 03:35:58;;;;;;;2.83;2.63;;;;;;;;;;2090349;28;20183;-59
2020/12/14 03:36:58;;;;;;;2.40;2.30;;;;;;;;;;2089415;28;20647;-56
2020/12/14 03:37:59;;;;;;;3.60;2.10;;;;;;;;;;2081568;28;20573;-59
2020/12/14 03:38:59;;;;;;;2.37;2.13;;;;;;;;;;2082202;28;20259;-58
2020/12/14 03:39:59;;;;;;;2.67;2.47;;;;;;;;;;2090025;28;20183;-58
2020/12/14 03:41:03;;;;;;;4.80;2.50;;;;;;;;;;2090003;28;20182;-59
2020/12/14 03:42:03;;;;;;;3.37;2.90;;;;;;;;;;2090930;28;20670;-55
2020/12/14 03:43:03;;;;;;;3.20;2.33;;;;;;;;;;2082393;28;20181;-58
2020/12/14 03:44:04;;;;;;;4.03;2.23;;;;;;;;;;2079989;28;20200;-60
2020/12/14 03:45:04;;;;;;;4.73;2.90;;;;;;;;;;2081344;28;20211;-59
2020/12/14 03:46:04;;;;;;;3.00;2.30;;;;;;;;;;2087903;28;20632;-56
2020/12/14 03:47:04;;;;;;;3.47;2.47;;;;;;;;;;2085878;28;20192;-60
2020/12/14 03:48:05;;;;;;;3.45;2.72;;;;;;;;;;2088235;28;20175;-60
2020/12/14 03:49:05;;;;;;;3.83;2.20;;;;;;;;;;2086913;28;20168;-61
2020/12/14 03:50:05;;;;;;;3.33;2.50;;;;;;;;;;2088488;28;20213;-61
2020/12/14 03:51:07;;;;;;;3.60;2.57;;;;;;;;;;2087385;28;20646;-59
2020/12/14 03:52:07;;;;;;;2.40;2.30;;;;;;;;;;2087160;28;20192;-58
2020/12/14 03:53:07;;;;;;;3.60;2.43;;;;;;;;;;2081664;28;20176;-57
2020/12/14 03:54:08;;;;;;;2.80;2.60;;;;;;;;;;2079991;28;20181;-59
2020/12/14 03:55:08;;;;;;;2.73;2.33;;;;;;;;;;2087325;28;20180;-58
2020/12/14 03:56:08;;;;;;;4.13;2.90;;;;;;;;;;2087233;28;20206;-59
2020/12/14 03:57:08;;;;;;;3.97;2.40;;;;;;;;;;2086503;28;20186;-59
2020/12/14 03:58:09;;;;;;;5.10;2.60;;;;;;;;;;2079681;28;20795;-58
2020/12/14 03:59:09;;;;;;;5.40;2.40;;;;;;;;;;2078722;28;20169;-60
2020/12/14 04:00:09;;;;;;;3.27;2.40;;;;;;;;;;2088577;28;20232;-62
2020/12/14 04:01:17;;;;;;;3.43;2.47;;;;;;;;;;2089160;28;20178;-60
2020/12/14 04:02:18;;;;;;;3.90;2.20;;;;;;;;;;2088358;28;20186;-59
2020/12/14 04:03:18;;;;;;;2.67;2.47;;;;;;;;;;2087840;28;20675;-61
2020/12/14 04:04:18;;;;;;;2.47;2.27;;;;;;;;;;2088573;28;20176;-62
2020/12/14 04:05:18;;;;;;;3.20;2.30;;;;;;;;;;2088146;28;20663;-59
2020/12/14 04:06:19;;;;;;;5.32;2.28;;;;;;;;;;2086046;28;20176;-61
2020/12/14 04:07:20;;;;;;;2.05;1.95;;;;;;;;;;2085405;28;20175;-59
2020/12/14 04:08:20;;;;;;;2.17;2.03;;;;;;;;;;2088281;28;20229;-63
2020/12/14 04:09:20;;;;;;;2.40;2.20;;;;;;;;;;2087989;28;20557;-58
2020/12/14 04:10:20;;;;;;;3.33;2.50;;;;;;;;;;2085758;28;20200;-59
2020/12/14 04:11:21;;;;;;;2.60;2.13;;;;;;;;;;2079102;28;20180;-59
2020/12/14 04:12:21;;;;;;;2.77;2.37;;;;;;;;;;2077714;28;20696;-61
2020/12/14 04:13:22;;;;;;;2.37;2.17;;;;;;;;;;2087460;28;20192;-57
2020/12/14 04:14:22;;;;;;;3.63;2.33;;;;;;;;;;2087937;28;20538;-60
2020/12/14 04:15:23;;;;;;;4.13;2.60;;;;;;;;;;2086640;28;20679;-60
2020/12/14 04:16:23;;;;;;;2.57;2.37;;;;;;;;;;2087879;28;20199;-60
2020/12/14 04:17:23;;;;;;;5.13;2.10;;;;;;;;;;2085762;28;20176;-63
2020/12/14 04:18:23;;;;;;;2.80;2.20;;;;;;;;;;2088683;28;20192;-60
2020/12/14 04:19:23;;;;;;;3.03;2.07;;;;;;;;;;2087477;28;20179;-59
2020/12/14 04:20:24;;;;;;;2.13;2.03;;;;;;;;;;2086649;28;20274;-59
2020/12/14 04:21:24;;;;;;;2.33;2.23;;;;;;;;;;2085771;28;20221;-60
2020/12/14 04:22:24;;;;;;;3.17;2.57;;;;;;;;;;2087849;28;20179;-58
2020/12/14 04:23:25;;;;;;;2.60;2.30;;;;;;;;;;2090306;28;20333;-59
2020/12/14 04:24:25;;;;;;;3.17;2.20;;;;;;;;;;2088843;28;20229;-61
2020/12/14 04:25:25;;;;;;;2.70;2.50;;;;;;;;;;2086387;28;20196;-59
2020/12/14 04:26:25;;;;;;;2.83;2.40;;;;;;;;;;2086624;28;20651;-60
2020/12/14 04:27:26;;;;;;;3.80;2.20;;;;;;;;;;2085419;28;20194;-58
2020/12/14 04:28:26;;;;;;;2.40;2.20;;;;;;;;;;2088690;28;20171;-58
2020/12/14 04:29:26;;;;;;;3.73;2.50;;;;;;;;;;2087348;28;20192;-58
2020/12/14 04:30:27;;;;;;;5.63;2.30;;;;;;;;;;2080814;28;20359;-60
2020/12/14 04:31:27;;;;;;;3.07;2.43;;;;;;;;;;2078319;28;20709;-59
2020/12/14 04:32:27;;;;;;;3.50;2.50;;;;;;;;;;2078295;28;20258;-56
2020/12/14 04:33:27;;;;;;;2.50;2.40;;;;;;;;;;2078284;28;20168;-60
2020/12/14 04:34:28;;;;;;;2.77;2.57;;;;;;;;;;2087782;28;20188;-58
2020/12/14 04:35:28;;;;;;;4.07;2.23;;;;;;;;;;2089355;28;20179;-59
2020/12/14 04:36:29;;;;;;;3.30;2.53;;;;;;;;;;2087848;28;20258;-62
2020/12/14 04:37:29;;;;;;;2.93;2.00;;;;;;;;;;2089954;28;20210;-59
2020/12/14 04:38:29;;;;;;;3.03;2.50;;;;;;;;;;2088345;28;20179;-59
2020/12/14 04:39:29;;;;;;;2.73;2.40;;;;;;;;;;2087640;28;20214;-59
2020/12/14 04:40:30;;;;;;;2.43;2.30;;;;;;;;;;2078991;28;20212;-60
2020/12/14 04:41:31;;;;;;;2.40;2.20;;;;;;;;;;2078844;28;20180;-63
2020/12/14 04:42:31;;;;;;;2.30;2.20;;;;;;;;;;2080912;28;20896;-61
2020/12/14 04:43:32;;;;;;;2.20;2.10;;;;;;;;;;2072360;28;20197;-61
2020/12/14 04:44:32;;;;;;;7.20;2.10;;;;;;;;;;2074127;28;20196;-60
2020/12/14 04:45:32;;;;;;;5.07;2.50;;;;;;;;;;2081735;28;20207;-60
2020/12/14 04:46:33;;;;;;;2.70;2.50;;;;;;;;;;2089753;28;20247;-59
2020/12/14 04:47:34;;;;;;;2.93;2.63;;;;;;;;;;2081976;28;20176;-59
2020/12/14 04:48:34;;;;;;;3.07;2.80;;;;;;;;;;2076695;28;20212;-59
2020/12/14 04:49:35;;;;;;;2.35;2.15;;;;;;;;;;2079462;28;20680;-62
2020/12/14 04:50:35;;;;;;;4.67;2.13;;;;;;;;;;2090924;28;20249;-61
2020/12/14 04:51:36;;;;;;;2.30;2.07;;;;;;;;;;2086279;28;20188;-60
2020/12/14 04:52:36;;;;;;;3.73;2.33;;;;;;;;;;2088798;28;20188;-61
2020/12/14 04:53:38;;;;;;;2.37;2.17;;;;;;;;;;2079870;28;20172;-61
2020/12/14 04:54:39;;;;;;;2.73;2.00;;;;;;;;;;2079872;28;20235;-58
2020/12/14 04:55:39;;;;;;;2.40;2.28;;;;;;;;;;2079958;28;20181;-62
2020/12/14 04:56:40;;;;;;;2.80;2.60;;;;;;;;;;2077209;28;20208;-62
2020/12/14 04:57:42;;;;;;;2.38;2.15;;;;;;;;;;2087709;28;20176;-61
2020/12/14 04:58:42;;;;;;;3.37;2.30;;;;;;;;;;2086435;28;20633;-56
2020/12/14 04:59:43;;;;;;;3.13;2.27;;;;;;;;;;2088737;28;20167;-61
2020/12/14 05:00:43;;;;;;;2.63;2.43;;;;;;;;;;2082511;28;20723;-62
2020/12/14 05:01:43;;;;;;;3.47;2.70;;;;;;;;;;2079536;28;20160;-62
2020/12/14 05:02:44;;;;;;;2.57;2.37;;;;;;;;;;2086569;28;20255;-61
2020/12/14 05:03:44;;;;;;;3.90;2.57;;;;;;;;;;2088170;28;20175;-62
2020/12/14 05:04:44;;;;;;;2.30;2.20;;;;;;;;;;2077700;28;20165;-60
2020/12/14 05:05:53;;;;;;;2.95;2.17;;;;;;;;;;2079146;28;20187;-59
2020/12/14 05:06:53;;;;;;;3.73;2.20;;;;;;;;;;2086782;28;20168;-62
2020/12/14 05:07:54;;;;;;;2.72;2.38;;;;;;;;;;2084976;28;20238;-60
2020/12/14 05:08:54;;;;;;;2.70;2.50;;;;;;;;;;2087714;28;20164;-62
2020/12/14 05:10:03;;;;;;;3.72;2.65;;;;;;;;;;2087514;28;20160;-59
2020/12/14 05:11:03;;;;;;;4.77;2.57;;;;;;;;;;2088458;28;20206;-58
2020/12/14 05:12:15;;;;;;;2.30;2.20;;;;;;;;;;2086001;28;20180;-60
2020/12/14 05:13:15;;;;;;;2.83;2.10;;;;;;;;;;2078911;28;20535;-58
2020/12/14 05:14:17;;;;;;;2.92;2.22;;;;;;;;;;2079246;28;20191;-58
2020/12/14 05:15:19;;;;;;;2.03;1.93;;;;;;;;;;2087957;28;20204;-59
2020/12/14 05:16:32;;;;;;;3.83;2.28;;;;;;;;;;2087803;28;20175;-59
2020/12/14 05:17:32;;;;;;;2.27;2.10;;;;;;;;;;2086419;28;20175;-60
2020/12/14 05:18:32;;;;;;;2.80;2.20;;;;;;;;;;2086076;28;20168;-61
2020/12/14 05:19:33;;;;;;;2.20;2.10;;;;;;;;;;2087087;28;20180;-62
2020/12/14 05:20:33;;;;;;;5.87;2.40;;;;;;;;;;2090390;28;20213;-58
2020/12/14 05:21:52;;;;;;;3.00;2.53;;;;;;;;;;2076921;28;20266;-59
2020/12/14 05:22:56;;;;;;;3.17;2.15;;;;;;;;;;2081704;28;20188;-60
2020/12/14 05:24:00;;;;;;;3.00;2.40;;;;;;;;;;2087564;28;20720;-60
2020/12/14 05:25:00;;;;;;;7.70;2.17;;;;;;;;;;2088101;28;20250;-57
2020/12/14 05:26:13;;;;;;;3.07;2.40;;;;;;;;;;2088143;28;20550;-58
2020/12/14 05:27:27;;;;;;;4.30;2.10;;;;;;;;;;2086116;28;20168;-62
2020/12/14 05:28:27;;;;;;;2.47;2.27;;;;;;;;;;2088649;28;20175;-62
2020/12/14 05:29:29;;;;;;;2.70;2.13;;;;;;;;;;2087270;28;20176;-59
2020/12/14 05:30:32;;;;;;;2.17;2.00;;;;;;;;;;2090847;28;20218;-61
2020/12/14 05:31:33;;;;;;;2.10;2.00;;;;;;;;;;2086756;28;20172;-59
2020/12/14 05:32:33;;;;;;;2.08;1.92;;;;;;;;;;2090587;28;20168;-60
2020/12/14 05:33:33;;;;;;;2.10;1.90;;;;;;;;;;2070073;28;20238;-59
2020/12/14 05:34:35;;;;;;;2.75;2.17;;;;;;;;;;2071259;28;20256;-61
2020/12/14 05:35:38;;;;;;;3.50;2.20;;;;;;;;;;2088374;28;20183;-60
2020/12/14 05:36:38;;;;;;;2.37;2.10;;;;;;;;;;2088793;28;20172;-62
2020/12/14 05:37:40;;;;;;;2.73;2.47;;;;;;;;;;2091304;28;20297;-60
2020/12/14 05:38:41;;;;;;;2.37;2.17;;;;;;;;;;2086327;28;20175;-60
2020/12/14 05:39:42;;;;;;;2.37;2.10;;;;;;;;;;2088402;28;20230;-60
2020/12/14 05:40:43;;;;;;;2.20;2.10;;;;;;;;;;2077584;28;20205;-60
2020/12/14 05:41:43;;;;;;;1.93;1.83;;;;;;;;;;2079836;28;20558;-60
2020/12/14 05:42:43;;;;;;;3.90;1.97;;;;;;;;;;2090330;28;20211;-61
2020/12/14 05:43:55;;;;;;;2.47;2.03;;;;;;;;;;2077445;28;20645;-59
2020/12/14 05:44:55;;;;;;;2.23;2.03;;;;;;;;;;2081897;28;20645;-60
2020/12/14 05:45:55;;;;;;;3.33;2.30;;;;;;;;;;2088274;28;20168;-59
2020/12/14 05:46:56;;;;;;;2.30;2.10;;;;;;;;;;2090744;28;20531;-60
2020/12/14 05:47:56;;;;;;;2.35;2.15;;;;;;;;;;2081415;28;20164;-58
2020/12/14 05:49:05;;;;;;;4.20;2.20;;;;;;;;;;2080565;28;20584;-61
2020/12/14 05:50:07;;;;;;;2.50;2.23;;;;;;;;;;2088984;28;20218;-59
2020/12/14 05:51:08;;;;;;;2.07;1.97;;;;;;;;;;2089377;28;20193;-59
2020/12/14 05:52:09;;;;;;;2.23;1.83;;;;;;;;;;2089156;28;20171;-59
2020/12/14 05:53:13;;;;;;;2.38;2.00;;;;;;;;;;2080417;28;20195;-59
2020/12/14 05:54:16;;;;;;;3.17;2.00;;;;;;;;;;2079206;28;20747;-61
2020/12/14 05:55:16;;;;;;;3.58;2.80;;;;;;;;;;2085175;28;20198;-59
2020/12/14 05:56:16;;;;;;;2.47;2.08;;;;;;;;;;2088394;28;20313;-61
2020/12/14 05:57:28;;;;;;;4.47;2.55;;;;;;;;;;2090101;28;20437;-62
2020/12/14 05:58:29;;;;;;;3.17;2.30;;;;;;;;;;2088557;28;20174;-59
2020/12/14 05:59:33;;;;;;;2.93;2.60;;;;;;;;;;2086983;28;20195;-59
2020/12/14 06:00:33;;;;;;;3.50;2.42;;;;;;;;;;2077838;28;20207;-60
2020/12/14 06:01:34;;;;;;;3.17;2.13;;;;;;;;;;2078922;28;20181;-57
2020/12/14 06:02:34;;;;;;;2.43;2.20;;;;;;;;;;2079853;28;20202;-61
2020/12/14 06:03:35;;;;;;;3.80;2.20;;;;;;;;;;2076696;28;20250;-59
2020/12/14 06:04:36;;;;;;;2.27;2.10;;;;;;;;;;2087968;28;20200;-62